sensor_id;sensor_type;location;lat;lon;timestamp;P1;durP1;ratioP1;P2;durP2;ratioP2
23252;SDS011;11795;47.054;15.408;2023-11-21T00:01:58;15.3;;;11.6;;
23252;SDS011;11795;47.054;15.408;2023-11-21T00:03:58;15.3;;;11.6;;
23252;SDS011;11795;47.054;15.408;2023-11-21T00:05:58;16.3;;;11.8;;
23252;SDS011;11795;47.054;15.408;2023-11-21T00:07:58;16.3;;;11.8;;
23252;SDS011;11795;47.054;15.408;2023-11-21T00:09:58;16.3;;;11.8;;
23252;SDS011;11795;47.054;15.408;2023-11-21T00:11:59;17.8;;;11.6;;
23252;SDS011;11795;47.054;15.408;2023-11-21T00:13:58;17.8;;;11.6;;
23252;SDS011;11795;47.054;15.408;2023-11-21T00:15:58;15.4;;;11.5;;
23252;SDS011;11795;47.054;15.408;2023-11-21T00:17:58;15.4;;;11.5;;
23252;SDS011;11795;47.054;15.408;2023-11-21T00:19:58;15.4;;;11.5;;
23252;SDS011;11795;47.054;15.408;2023-11-21T00:21:58;16.0;;;11.3;;
23252;SDS011;11795;47.054;15.408;2023-11-21T00:23:58;16.0;;;11.3;;
23252;SDS011;11795;47.054;15.408;2023-11-21T00:25:58;13.8;;;10.5;;
23252;SDS011;11795;47.054;15.408;2023-11-21T00:27:58;13.8;;;10.5;;
23252;SDS011;11795;47.054;15.408;2023-11-21T00:29:58;13.8;;;10.5;;
23252;SDS011;11795;47.054;15.408;2023-11-21T00:31:58;13.2;;;11.0;;
23252;SDS011;11795;47.054;15.408;2023-11-21T00:33:58;13.2;;;11.0;;
23252;SDS011;11795;47.054;15.408;2023-11-21T00:35:58;16.0;;;11.6;;
23252;SDS011;11795;47.054;15.408;2023-11-21T00:37:58;16.0;;;11.6;;
23252;SDS011;11795;47.054;15.408;2023-11-21T00:39:58;16.0;;;11.6;;
23252;SDS011;11795;47.054;15.408;2023-11-21T00:41:58;13.9;;;11.2;;
23252;SDS011;11795;47.054;15.408;2023-11-21T00:44:00;13.9;;;11.2;;
23252;SDS011;11795;47.054;15.408;2023-11-21T00:45:58;13.5;;;11.0;;
23252;SDS011;11795;47.054;15.408;2023-11-21T00:47:58;13.5;;;11.0;;
23252;SDS011;11795;47.054;15.408;2023-11-21T00:49:58;13.5;;;11.0;;
23252;SDS011;11795;47.054;15.408;2023-11-21T00:51:58;18.1;;;12.8;;
23252;SDS011;11795;47.054;15.408;2023-11-21T00:53:58;18.1;;;12.8;;
23252;SDS011;11795;47.054;15.408;2023-11-21T00:55:58;19.7;;;14.8;;
23252;SDS011;11795;47.054;15.408;2023-11-21T00:57:58;19.7;;;14.8;;
23252;SDS011;11795;47.054;15.408;2023-11-21T00:59:58;19.7;;;14.8;;
23252;SDS011;11795;47.054;15.408;2023-11-21T01:02:00;22.1;;;16.7;;
23252;SDS011;11795;47.054;15.408;2023-11-21T01:03:58;22.1;;;16.7;;
23252;SDS011;11795;47.054;15.408;2023-11-21T01:05:59;24.8;;;17.5;;
23252;SDS011;11795;47.054;15.408;2023-11-21T01:07:58;24.8;;;17.5;;
23252;SDS011;11795;47.054;15.408;2023-11-21T01:09:58;24.8;;;17.5;;
23252;SDS011;11795;47.054;15.408;2023-11-21T01:11:59;23.9;;;17.7;;
23252;SDS011;11795;47.054;15.408;2023-11-21T01:14:00;23.9;;;17.7;;
23252;SDS011;11795;47.054;15.408;2023-11-21T01:15:58;25.3;;;17.5;;
23252;SDS011;11795;47.054;15.408;2023-11-21T01:17:58;25.3;;;17.5;;
23252;SDS011;11795;47.054;15.408;2023-11-21T01:19:58;25.3;;;17.5;;
23252;SDS011;11795;47.054;15.408;2023-11-21T01:21:58;20.9;;;16.6;;
23252;SDS011;11795;47.054;15.408;2023-11-21T01:23:58;20.9;;;16.6;;
23252;SDS011;11795;47.054;15.408;2023-11-21T01:25:58;20.3;;;15.7;;
23252;SDS011;11795;47.054;15.408;2023-11-21T01:27:58;20.3;;;15.7;;
23252;SDS011;11795;47.054;15.408;2023-11-21T01:29:58;20.3;;;15.7;;
23252;SDS011;11795;47.054;15.408;2023-11-21T01:31:58;21.1;;;15.4;;
23252;SDS011;11795;47.054;15.408;2023-11-21T01:33:58;21.1;;;15.4;;
23252;SDS011;11795;47.054;15.408;2023-11-21T01:35:58;20.7;;;15.8;;
23252;SDS011;11795;47.054;15.408;2023-11-21T01:37:58;20.7;;;15.8;;
23252;SDS011;11795;47.054;15.408;2023-11-21T01:39:59;20.7;;;15.8;;
23252;SDS011;11795;47.054;15.408;2023-11-21T01:41:58;19.9;;;15.4;;
23252;SDS011;11795;47.054;15.408;2023-11-21T01:43:58;19.9;;;15.4;;
23252;SDS011;11795;47.054;15.408;2023-11-21T01:45:58;19.5;;;14.9;;
23252;SDS011;11795;47.054;15.408;2023-11-21T01:47:58;19.5;;;14.9;;
23252;SDS011;11795;47.054;15.408;2023-11-21T01:49:58;19.5;;;14.9;;
23252;SDS011;11795;47.054;15.408;2023-11-21T01:51:58;18.9;;;13.8;;
23252;SDS011;11795;47.054;15.408;2023-11-21T01:53:59;18.9;;;13.8;;
23252;SDS011;11795;47.054;15.408;2023-11-21T01:55:59;19.5;;;15.2;;
23252;SDS011;11795;47.054;15.408;2023-11-21T01:57:58;19.5;;;15.2;;
23252;SDS011;11795;47.054;15.408;2023-11-21T01:59:58;19.5;;;15.2;;
23252;SDS011;11795;47.054;15.408;2023-11-21T02:01:58;18.6;;;14.5;;
23252;SDS011;11795;47.054;15.408;2023-11-21T02:03:58;18.6;;;14.5;;
23252;SDS011;11795;47.054;15.408;2023-11-21T02:05:58;18.6;;;14.1;;
23252;SDS011;11795;47.054;15.408;2023-11-21T02:07:58;18.6;;;14.1;;
23252;SDS011;11795;47.054;15.408;2023-11-21T02:09:58;18.6;;;14.1;;
23252;SDS011;11795;47.054;15.408;2023-11-21T02:11:59;17.2;;;13.3;;
23252;SDS011;11795;47.054;15.408;2023-11-21T02:13:59;17.2;;;13.3;;
23252;SDS011;11795;47.054;15.408;2023-11-21T02:15:58;15.3;;;12.6;;
23252;SDS011;11795;47.054;15.408;2023-11-21T02:17:59;15.3;;;12.6;;
23252;SDS011;11795;47.054;15.408;2023-11-21T02:19:58;15.3;;;12.6;;
23252;SDS011;11795;47.054;15.408;2023-11-21T02:21:59;14.0;;;11.3;;
23252;SDS011;11795;47.054;15.408;2023-11-21T02:23:58;14.0;;;11.3;;
23252;SDS011;11795;47.054;15.408;2023-11-21T02:25:58;15.7;;;10.7;;
23252;SDS011;11795;47.054;15.408;2023-11-21T02:27:58;15.7;;;10.7;;
23252;SDS011;11795;47.054;15.408;2023-11-21T02:29:58;15.7;;;10.7;;
23252;SDS011;11795;47.054;15.408;2023-11-21T02:31:59;13.4;;;10.3;;
23252;SDS011;11795;47.054;15.408;2023-11-21T02:33:58;13.4;;;10.3;;
23252;SDS011;11795;47.054;15.408;2023-11-21T02:35:59;13.4;;;10.3;;
23252;SDS011;11795;47.054;15.408;2023-11-21T02:37:58;13.4;;;9.5;;
23252;SDS011;11795;47.054;15.408;2023-11-21T02:39:59;13.4;;;9.5;;
23252;SDS011;11795;47.054;15.408;2023-11-21T02:41:58;12.5;;;9.6;;
23252;SDS011;11795;47.054;15.408;2023-11-21T02:43:58;12.5;;;9.6;;
23252;SDS011;11795;47.054;15.408;2023-11-21T02:45:58;12.5;;;9.6;;
23252;SDS011;11795;47.054;15.408;2023-11-21T02:47:58;12.3;;;8.9;;
23252;SDS011;11795;47.054;15.408;2023-11-21T02:49:58;12.3;;;8.9;;
23252;SDS011;11795;47.054;15.408;2023-11-21T02:51:58;11.8;;;8.9;;
23252;SDS011;11795;47.054;15.408;2023-11-21T02:54:00;11.8;;;8.9;;
23252;SDS011;11795;47.054;15.408;2023-11-21T02:55:58;11.8;;;8.9;;
23252;SDS011;11795;47.054;15.408;2023-11-21T02:57:58;12.1;;;8.7;;
23252;SDS011;11795;47.054;15.408;2023-11-21T02:59:58;12.1;;;8.7;;
23252;SDS011;11795;47.054;15.408;2023-11-21T03:01:58;12.1;;;8.2;;
23252;SDS011;11795;47.054;15.408;2023-11-21T03:03:58;12.1;;;8.2;;
23252;SDS011;11795;47.054;15.408;2023-11-21T03:05:58;12.1;;;8.2;;
23252;SDS011;11795;47.054;15.408;2023-11-21T03:07:58;11.5;;;8.7;;
23252;SDS011;11795;47.054;15.408;2023-11-21T03:09:58;11.5;;;8.7;;
23252;SDS011;11795;47.054;15.408;2023-11-21T03:11:58;11.2;;;8.5;;
23252;SDS011;11795;47.054;15.408;2023-11-21T03:13:58;11.2;;;8.5;;
23252;SDS011;11795;47.054;15.408;2023-11-21T03:15:58;11.2;;;8.5;;
23252;SDS011;11795;47.054;15.408;2023-11-21T03:17:58;10.8;;;8.6;;
23252;SDS011;11795;47.054;15.408;2023-11-21T03:19:58;10.8;;;8.6;;
23252;SDS011;11795;47.054;15.408;2023-11-21T03:21:58;11.2;;;8.6;;
23252;SDS011;11795;47.054;15.408;2023-11-21T03:23:59;11.2;;;8.6;;
23252;SDS011;11795;47.054;15.408;2023-11-21T03:25:58;11.2;;;8.6;;
23252;SDS011;11795;47.054;15.408;2023-11-21T03:27:58;9.7;;;7.4;;
23252;SDS011;11795;47.054;15.408;2023-11-21T03:29:58;9.7;;;7.4;;
23252;SDS011;11795;47.054;15.408;2023-11-21T03:31:58;8.4;;;6.5;;
23252;SDS011;11795;47.054;15.408;2023-11-21T03:33:58;8.4;;;6.5;;
23252;SDS011;11795;47.054;15.408;2023-11-21T03:35:58;8.4;;;6.5;;
23252;SDS011;11795;47.054;15.408;2023-11-21T03:37:58;7.8;;;5.6;;
23252;SDS011;11795;47.054;15.408;2023-11-21T03:39:58;7.8;;;5.6;;
23252;SDS011;11795;47.054;15.408;2023-11-21T03:41:58;6.0;;;5.3;;
23252;SDS011;11795;47.054;15.408;2023-11-21T03:43:58;6.0;;;5.3;;
23252;SDS011;11795;47.054;15.408;2023-11-21T03:45:58;6.0;;;5.3;;
23252;SDS011;11795;47.054;15.408;2023-11-21T03:47:58;6.2;;;5.3;;
23252;SDS011;11795;47.054;15.408;2023-11-21T03:49:58;6.2;;;5.3;;
23252;SDS011;11795;47.054;15.408;2023-11-21T03:51:58;5.9;;;4.6;;
23252;SDS011;11795;47.054;15.408;2023-11-21T03:53:58;5.9;;;4.6;;
23252;SDS011;11795;47.054;15.408;2023-11-21T03:55:58;5.9;;;4.6;;
23252;SDS011;11795;47.054;15.408;2023-11-21T03:57:58;6.8;;;5.1;;
23252;SDS011;11795;47.054;15.408;2023-11-21T03:59:58;6.8;;;5.1;;
23252;SDS011;11795;47.054;15.408;2023-11-21T04:01:58;5.8;;;4.9;;
23252;SDS011;11795;47.054;15.408;2023-11-21T04:03:58;5.8;;;4.9;;
23252;SDS011;11795;47.054;15.408;2023-11-21T04:05:58;5.8;;;4.9;;
23252;SDS011;11795;47.054;15.408;2023-11-21T04:07:58;7.6;;;5.2;;
23252;SDS011;11795;47.054;15.408;2023-11-21T04:09:58;7.6;;;5.2;;
23252;SDS011;11795;47.054;15.408;2023-11-21T04:11:58;6.1;;;5.1;;
23252;SDS011;11795;47.054;15.408;2023-11-21T04:13:59;6.1;;;5.1;;
23252;SDS011;11795;47.054;15.408;2023-11-21T04:15:58;6.1;;;5.1;;
23252;SDS011;11795;47.054;15.408;2023-11-21T04:17:58;5.5;;;4.3;;
23252;SDS011;11795;47.054;15.408;2023-11-21T04:19:58;5.5;;;4.3;;
23252;SDS011;11795;47.054;15.408;2023-11-21T04:21:58;6.0;;;4.2;;
23252;SDS011;11795;47.054;15.408;2023-11-21T04:23:58;6.0;;;4.2;;
23252;SDS011;11795;47.054;15.408;2023-11-21T04:25:58;6.0;;;4.2;;
23252;SDS011;11795;47.054;15.408;2023-11-21T04:27:58;7.7;;;5.1;;
23252;SDS011;11795;47.054;15.408;2023-11-21T04:29:58;7.7;;;5.1;;
23252;SDS011;11795;47.054;15.408;2023-11-21T04:31:58;7.0;;;5.3;;
23252;SDS011;11795;47.054;15.408;2023-11-21T04:33:58;7.0;;;5.3;;
23252;SDS011;11795;47.054;15.408;2023-11-21T04:35:58;7.0;;;5.3;;
23252;SDS011;11795;47.054;15.408;2023-11-21T04:37:58;6.4;;;5.1;;
23252;SDS011;11795;47.054;15.408;2023-11-21T04:39:58;6.4;;;5.1;;
23252;SDS011;11795;47.054;15.408;2023-11-21T04:41:58;6.9;;;5.0;;
23252;SDS011;11795;47.054;15.408;2023-11-21T04:43:58;6.9;;;5.0;;
23252;SDS011;11795;47.054;15.408;2023-11-21T04:45:58;6.9;;;5.0;;
23252;SDS011;11795;47.054;15.408;2023-11-21T04:47:58;7.6;;;5.8;;
23252;SDS011;11795;47.054;15.408;2023-11-21T04:49:58;7.6;;;5.8;;
23252;SDS011;11795;47.054;15.408;2023-11-21T04:51:58;7.3;;;5.4;;
23252;SDS011;11795;47.054;15.408;2023-11-21T04:53:58;7.3;;;5.4;;
23252;SDS011;11795;47.054;15.408;2023-11-21T04:55:58;7.3;;;5.4;;
23252;SDS011;11795;47.054;15.408;2023-11-21T04:57:58;7.3;;;5.2;;
23252;SDS011;11795;47.054;15.408;2023-11-21T04:59:58;7.3;;;5.2;;
23252;SDS011;11795;47.054;15.408;2023-11-21T05:02:00;6.5;;;4.8;;
23252;SDS011;11795;47.054;15.408;2023-11-21T05:03:58;6.5;;;4.8;;
23252;SDS011;11795;47.054;15.408;2023-11-21T05:05:59;6.5;;;4.8;;
23252;SDS011;11795;47.054;15.408;2023-11-21T05:07:58;7.5;;;5.3;;
23252;SDS011;11795;47.054;15.408;2023-11-21T05:09:58;7.5;;;5.3;;
23252;SDS011;11795;47.054;15.408;2023-11-21T05:11:58;8.5;;;5.5;;
23252;SDS011;11795;47.054;15.408;2023-11-21T05:13:58;8.5;;;5.5;;
23252;SDS011;11795;47.054;15.408;2023-11-21T05:15:58;8.5;;;5.5;;
23252;SDS011;11795;47.054;15.408;2023-11-21T05:18:00;6.0;;;5.4;;
23252;SDS011;11795;47.054;15.408;2023-11-21T05:19:58;6.0;;;5.4;;
23252;SDS011;11795;47.054;15.408;2023-11-21T05:21:59;8.6;;;6.3;;
23252;SDS011;11795;47.054;15.408;2023-11-21T05:23:58;8.6;;;6.3;;
23252;SDS011;11795;47.054;15.408;2023-11-21T05:25:58;8.6;;;6.3;;
23252;SDS011;11795;47.054;15.408;2023-11-21T05:29:26;6.1;;;5.3;;
23252;SDS011;11795;47.054;15.408;2023-11-21T05:31:57;6.7;;;6.0;;
23252;SDS011;11795;47.054;15.408;2023-11-21T05:33:57;6.7;;;6.0;;
23252;SDS011;11795;47.054;15.408;2023-11-21T05:35:57;6.7;;;6.0;;
23252;SDS011;11795;47.054;15.408;2023-11-21T05:37:57;8.3;;;6.9;;
23252;SDS011;11795;47.054;15.408;2023-11-21T05:39:58;8.3;;;6.9;;
23252;SDS011;11795;47.054;15.408;2023-11-21T05:41:58;17.0;;;12.9;;
23252;SDS011;11795;47.054;15.408;2023-11-21T05:43:57;17.0;;;12.9;;
23252;SDS011;11795;47.054;15.408;2023-11-21T05:45:57;17.0;;;12.9;;
23252;SDS011;11795;47.054;15.408;2023-11-21T05:47:58;14.5;;;11.3;;
23252;SDS011;11795;47.054;15.408;2023-11-21T05:49:57;14.5;;;11.3;;
23252;SDS011;11795;47.054;15.408;2023-11-21T05:51:57;15.7;;;11.3;;
23252;SDS011;11795;47.054;15.408;2023-11-21T05:53:58;15.7;;;11.3;;
23252;SDS011;11795;47.054;15.408;2023-11-21T05:55:57;15.7;;;11.3;;
23252;SDS011;11795;47.054;15.408;2023-11-21T05:57:57;15.1;;;10.5;;
23252;SDS011;11795;47.054;15.408;2023-11-21T05:59:57;15.1;;;10.5;;
23252;SDS011;11795;47.054;15.408;2023-11-21T06:01:58;14.0;;;10.2;;
23252;SDS011;11795;47.054;15.408;2023-11-21T06:03:59;14.0;;;10.2;;
23252;SDS011;11795;47.054;15.408;2023-11-21T06:05:57;14.0;;;10.2;;
23252;SDS011;11795;47.054;15.408;2023-11-21T06:07:59;14.7;;;10.9;;
23252;SDS011;11795;47.054;15.408;2023-11-21T06:09:57;14.7;;;10.9;;
23252;SDS011;11795;47.054;15.408;2023-11-21T06:11:58;13.9;;;10.9;;
23252;SDS011;11795;47.054;15.408;2023-11-21T06:13:58;13.9;;;10.9;;
23252;SDS011;11795;47.054;15.408;2023-11-21T06:15:58;13.9;;;10.9;;
23252;SDS011;11795;47.054;15.408;2023-11-21T06:17:58;14.6;;;10.8;;
23252;SDS011;11795;47.054;15.408;2023-11-21T06:19:57;14.6;;;10.8;;
23252;SDS011;11795;47.054;15.408;2023-11-21T06:21:57;16.4;;;10.9;;
23252;SDS011;11795;47.054;15.408;2023-11-21T06:23:58;16.4;;;10.9;;
23252;SDS011;11795;47.054;15.408;2023-11-21T06:25:58;16.4;;;10.9;;
23252;SDS011;11795;47.054;15.408;2023-11-21T06:27:57;15.5;;;11.2;;
23252;SDS011;11795;47.054;15.408;2023-11-21T06:29:57;15.5;;;11.2;;
23252;SDS011;11795;47.054;15.408;2023-11-21T06:31:58;13.4;;;10.4;;
23252;SDS011;11795;47.054;15.408;2023-11-21T06:33:59;13.4;;;10.4;;
23252;SDS011;11795;47.054;15.408;2023-11-21T06:35:57;13.4;;;10.4;;
23252;SDS011;11795;47.054;15.408;2023-11-21T06:37:57;14.0;;;9.9;;
23252;SDS011;11795;47.054;15.408;2023-11-21T06:39:59;14.0;;;9.9;;
23252;SDS011;11795;47.054;15.408;2023-11-21T06:42:00;13.8;;;9.5;;
23252;SDS011;11795;47.054;15.408;2023-11-21T06:43:59;13.8;;;9.5;;
23252;SDS011;11795;47.054;15.408;2023-11-21T06:45:57;13.8;;;9.5;;
23252;SDS011;11795;47.054;15.408;2023-11-21T06:47:57;13.2;;;10.2;;
23252;SDS011;11795;47.054;15.408;2023-11-21T06:49:58;13.2;;;10.2;;
23252;SDS011;11795;47.054;15.408;2023-11-21T06:51:58;15.1;;;10.9;;
23252;SDS011;11795;47.054;15.408;2023-11-21T06:53:58;15.1;;;10.9;;
23252;SDS011;11795;47.054;15.408;2023-11-21T06:55:57;15.1;;;10.9;;
23252;SDS011;11795;47.054;15.408;2023-11-21T06:57:58;11.8;;;9.5;;
23252;SDS011;11795;47.054;15.408;2023-11-21T06:59:57;11.8;;;9.5;;
23252;SDS011;11795;47.054;15.408;2023-11-21T07:01:57;14.1;;;10.6;;
23252;SDS011;11795;47.054;15.408;2023-11-21T07:03:57;14.1;;;10.6;;
23252;SDS011;11795;47.054;15.408;2023-11-21T07:05:57;14.1;;;10.6;;
23252;SDS011;11795;47.054;15.408;2023-11-21T07:08:04;16.6;;;10.9;;
23252;SDS011;11795;47.054;15.408;2023-11-21T07:09:57;16.6;;;10.9;;
23252;SDS011;11795;47.054;15.408;2023-11-21T07:11:57;13.2;;;10.2;;
23252;SDS011;11795;47.054;15.408;2023-11-21T07:13:57;13.2;;;10.2;;
23252;SDS011;11795;47.054;15.408;2023-11-21T07:15:57;13.2;;;10.2;;
23252;SDS011;11795;47.054;15.408;2023-11-21T07:17:58;15.7;;;10.8;;
23252;SDS011;11795;47.054;15.408;2023-11-21T07:19:57;15.7;;;10.8;;
23252;SDS011;11795;47.054;15.408;2023-11-21T07:21:57;14.3;;;10.9;;
23252;SDS011;11795;47.054;15.408;2023-11-21T07:23:58;14.3;;;10.9;;
23252;SDS011;11795;47.054;15.408;2023-11-21T07:25:57;14.3;;;10.9;;
23252;SDS011;11795;47.054;15.408;2023-11-21T07:27:57;12.7;;;9.9;;
23252;SDS011;11795;47.054;15.408;2023-11-21T07:29:57;12.7;;;9.9;;
23252;SDS011;11795;47.054;15.408;2023-11-21T07:31:57;14.4;;;10.7;;
23252;SDS011;11795;47.054;15.408;2023-11-21T07:33:57;14.4;;;10.7;;
23252;SDS011;11795;47.054;15.408;2023-11-21T07:35:57;14.4;;;10.7;;
23252;SDS011;11795;47.054;15.408;2023-11-21T07:37:58;12.4;;;10.0;;
23252;SDS011;11795;47.054;15.408;2023-11-21T07:39:57;12.4;;;10.0;;
23252;SDS011;11795;47.054;15.408;2023-11-21T07:41:57;14.9;;;10.8;;
23252;SDS011;11795;47.054;15.408;2023-11-21T07:43:57;14.9;;;10.8;;
23252;SDS011;11795;47.054;15.408;2023-11-21T07:45:57;14.9;;;10.8;;
23252;SDS011;11795;47.054;15.408;2023-11-21T07:47:58;13.1;;;10.2;;
23252;SDS011;11795;47.054;15.408;2023-11-21T07:49:57;13.1;;;10.2;;
23252;SDS011;11795;47.054;15.408;2023-11-21T07:51:57;12.0;;;9.7;;
23252;SDS011;11795;47.054;15.408;2023-11-21T07:53:57;12.0;;;9.7;;
23252;SDS011;11795;47.054;15.408;2023-11-21T07:55:58;12.0;;;9.7;;
23252;SDS011;11795;47.054;15.408;2023-11-21T07:57:57;15.1;;;10.3;;
23252;SDS011;11795;47.054;15.408;2023-11-21T07:59:57;15.1;;;10.3;;
23252;SDS011;11795;47.054;15.408;2023-11-21T08:01:57;12.6;;;9.9;;
23252;SDS011;11795;47.054;15.408;2023-11-21T08:04:01;12.6;;;9.9;;
23252;SDS011;11795;47.054;15.408;2023-11-21T08:05:58;12.6;;;9.9;;
23252;SDS011;11795;47.054;15.408;2023-11-21T08:07:57;13.0;;;9.8;;
23252;SDS011;11795;47.054;15.408;2023-11-21T08:09:58;13.0;;;9.8;;
23252;SDS011;11795;47.054;15.408;2023-11-21T08:11:57;10.6;;;9.0;;
23252;SDS011;11795;47.054;15.408;2023-11-21T08:13:59;10.6;;;9.0;;
23252;SDS011;11795;47.054;15.408;2023-11-21T08:16:01;10.6;;;9.0;;
23252;SDS011;11795;47.054;15.408;2023-11-21T08:17:58;10.8;;;8.1;;
23252;SDS011;11795;47.054;15.408;2023-11-21T08:19:58;10.8;;;8.1;;
23252;SDS011;11795;47.054;15.408;2023-11-21T08:21:59;10.3;;;7.5;;
23252;SDS011;11795;47.054;15.408;2023-11-21T08:23:57;10.3;;;7.5;;
23252;SDS011;11795;47.054;15.408;2023-11-21T08:25:57;10.3;;;7.5;;
23252;SDS011;11795;47.054;15.408;2023-11-21T08:27:57;9.1;;;7.5;;
23252;SDS011;11795;47.054;15.408;2023-11-21T08:29:58;9.1;;;7.5;;
23252;SDS011;11795;47.054;15.408;2023-11-21T08:31:57;8.9;;;6.6;;
23252;SDS011;11795;47.054;15.408;2023-11-21T08:33:57;8.9;;;6.6;;
23252;SDS011;11795;47.054;15.408;2023-11-21T08:35:57;8.9;;;6.6;;
23252;SDS011;11795;47.054;15.408;2023-11-21T08:37:57;10.3;;;7.0;;
23252;SDS011;11795;47.054;15.408;2023-11-21T08:39:58;10.3;;;7.0;;
23252;SDS011;11795;47.054;15.408;2023-11-21T08:41:57;13.4;;;10.8;;
23252;SDS011;11795;47.054;15.408;2023-11-21T08:43:58;13.4;;;10.8;;
23252;SDS011;11795;47.054;15.408;2023-11-21T08:45:57;13.4;;;10.8;;
23252;SDS011;11795;47.054;15.408;2023-11-21T08:47:57;35.6;;;24.6;;
23252;SDS011;11795;47.054;15.408;2023-11-21T08:49:58;35.6;;;24.6;;
23252;SDS011;11795;47.054;15.408;2023-11-21T08:51:59;31.5;;;22.5;;
23252;SDS011;11795;47.054;15.408;2023-11-21T08:54:00;31.5;;;22.5;;
23252;SDS011;11795;47.054;15.408;2023-11-21T08:55:57;31.5;;;22.5;;
23252;SDS011;11795;47.054;15.408;2023-11-21T08:57:59;27.5;;;19.8;;
23252;SDS011;11795;47.054;15.408;2023-11-21T08:59:57;27.5;;;19.8;;
23252;SDS011;11795;47.054;15.408;2023-11-21T09:01:57;26.6;;;19.5;;
23252;SDS011;11795;47.054;15.408;2023-11-21T09:03:57;26.6;;;19.5;;
23252;SDS011;11795;47.054;15.408;2023-11-21T09:05:58;26.6;;;19.5;;
23252;SDS011;11795;47.054;15.408;2023-11-21T09:07:57;24.5;;;19.2;;
23252;SDS011;11795;47.054;15.408;2023-11-21T09:09:57;24.5;;;19.2;;
23252;SDS011;11795;47.054;15.408;2023-11-21T09:11:57;31.2;;;26.2;;
23252;SDS011;11795;47.054;15.408;2023-11-21T09:13:58;31.2;;;26.2;;
23252;SDS011;11795;47.054;15.408;2023-11-21T09:15:57;31.2;;;26.2;;
23252;SDS011;11795;47.054;15.408;2023-11-21T09:17:57;25.5;;;20.8;;
23252;SDS011;11795;47.054;15.408;2023-11-21T09:19:57;25.5;;;20.8;;
23252;SDS011;11795;47.054;15.408;2023-11-21T09:21:57;27.7;;;22.7;;
23252;SDS011;11795;47.054;15.408;2023-11-21T09:23:58;27.7;;;22.7;;
23252;SDS011;11795;47.054;15.408;2023-11-21T09:25:59;27.7;;;22.7;;
23252;SDS011;11795;47.054;15.408;2023-11-21T09:27:58;22.9;;;18.7;;
23252;SDS011;11795;47.054;15.408;2023-11-21T09:29:58;22.9;;;18.7;;
23252;SDS011;11795;47.054;15.408;2023-11-21T09:31:59;21.6;;;17.8;;
23252;SDS011;11795;47.054;15.408;2023-11-21T09:33:57;21.6;;;17.8;;
23252;SDS011;11795;47.054;15.408;2023-11-21T09:35:57;21.6;;;17.8;;
23252;SDS011;11795;47.054;15.408;2023-11-21T09:37:57;22.9;;;19.0;;
23252;SDS011;11795;47.054;15.408;2023-11-21T09:39:57;22.9;;;19.0;;
23252;SDS011;11795;47.054;15.408;2023-11-21T09:42:00;20.3;;;17.1;;
23252;SDS011;11795;47.054;15.408;2023-11-21T09:43:59;20.3;;;17.1;;
23252;SDS011;11795;47.054;15.408;2023-11-21T09:45:59;20.3;;;17.1;;
23252;SDS011;11795;47.054;15.408;2023-11-21T09:47:57;18.3;;;15.7;;
23252;SDS011;11795;47.054;15.408;2023-11-21T09:49:57;18.3;;;15.7;;
23252;SDS011;11795;47.054;15.408;2023-11-21T09:51:57;18.3;;;14.7;;
23252;SDS011;11795;47.054;15.408;2023-11-21T09:53:58;18.3;;;14.7;;
23252;SDS011;11795;47.054;15.408;2023-11-21T09:56:00;18.3;;;14.7;;
23252;SDS011;11795;47.054;15.408;2023-11-21T09:57:58;17.6;;;14.5;;
23252;SDS011;11795;47.054;15.408;2023-11-21T09:59:59;17.6;;;14.5;;
23252;SDS011;11795;47.054;15.408;2023-11-21T10:01:58;19.1;;;15.9;;
23252;SDS011;11795;47.054;15.408;2023-11-21T10:03:57;19.1;;;15.9;;
23252;SDS011;11795;47.054;15.408;2023-11-21T10:06:00;19.1;;;15.9;;
23252;SDS011;11795;47.054;15.408;2023-11-21T10:07:57;19.1;;;16.0;;
23252;SDS011;11795;47.054;15.408;2023-11-21T10:09:57;19.1;;;16.0;;
23252;SDS011;11795;47.054;15.408;2023-11-21T10:11:57;17.7;;;13.5;;
23252;SDS011;11795;47.054;15.408;2023-11-21T10:13:57;17.7;;;13.5;;
23252;SDS011;11795;47.054;15.408;2023-11-21T10:15:57;17.7;;;13.5;;
23252;SDS011;11795;47.054;15.408;2023-11-21T10:17:58;18.5;;;13.7;;
23252;SDS011;11795;47.054;15.408;2023-11-21T10:19:57;18.5;;;13.7;;
23252;SDS011;11795;47.054;15.408;2023-11-21T10:21:59;14.6;;;10.7;;
23252;SDS011;11795;47.054;15.408;2023-11-21T10:23:57;14.6;;;10.7;;
23252;SDS011;11795;47.054;15.408;2023-11-21T10:25:59;14.6;;;10.7;;
23252;SDS011;11795;47.054;15.408;2023-11-21T10:27:58;11.3;;;7.9;;
23252;SDS011;11795;47.054;15.408;2023-11-21T10:29:57;11.3;;;7.9;;
23252;SDS011;11795;47.054;15.408;2023-11-21T10:31:59;12.1;;;7.0;;
23252;SDS011;11795;47.054;15.408;2023-11-21T10:35:58;12.1;;;7.0;;
23252;SDS011;11795;47.054;15.408;2023-11-21T10:37:59;6.9;;;5.6;;
23252;SDS011;11795;47.054;15.408;2023-11-21T10:39:58;6.9;;;5.6;;
23252;SDS011;11795;47.054;15.408;2023-11-21T10:41:57;7.3;;;6.0;;
23252;SDS011;11795;47.054;15.408;2023-11-21T10:43:58;7.3;;;6.0;;
23252;SDS011;11795;47.054;15.408;2023-11-21T10:45:59;7.3;;;6.0;;
23252;SDS011;11795;47.054;15.408;2023-11-21T10:47:57;8.1;;;6.9;;
23252;SDS011;11795;47.054;15.408;2023-11-21T10:49:58;8.1;;;6.9;;
23252;SDS011;11795;47.054;15.408;2023-11-21T10:51:57;7.5;;;6.6;;
23252;SDS011;11795;47.054;15.408;2023-11-21T10:54:00;7.5;;;6.6;;
23252;SDS011;11795;47.054;15.408;2023-11-21T10:56:01;7.5;;;6.6;;
23252;SDS011;11795;47.054;15.408;2023-11-21T10:57:58;8.5;;;6.7;;
23252;SDS011;11795;47.054;15.408;2023-11-21T10:59:57;8.5;;;6.7;;
23252;SDS011;11795;47.054;15.408;2023-11-21T11:01:57;8.9;;;6.5;;
23252;SDS011;11795;47.054;15.408;2023-11-21T11:03:57;8.9;;;6.5;;
23252;SDS011;11795;47.054;15.408;2023-11-21T11:05:57;8.9;;;6.5;;
23252;SDS011;11795;47.054;15.408;2023-11-21T11:08:00;6.9;;;6.1;;
23252;SDS011;11795;47.054;15.408;2023-11-21T11:09:58;6.9;;;6.1;;
23252;SDS011;11795;47.054;15.408;2023-11-21T11:11:57;7.5;;;5.8;;
23252;SDS011;11795;47.054;15.408;2023-11-21T11:13:58;7.5;;;5.8;;
23252;SDS011;11795;47.054;15.408;2023-11-21T11:16:00;7.5;;;5.8;;
23252;SDS011;11795;47.054;15.408;2023-11-21T11:17:57;8.1;;;5.5;;
23252;SDS011;11795;47.054;15.408;2023-11-21T11:19:57;8.1;;;5.5;;
23252;SDS011;11795;47.054;15.408;2023-11-21T11:22:00;6.2;;;4.6;;
23252;SDS011;11795;47.054;15.408;2023-11-21T11:24:01;6.2;;;4.6;;
23252;SDS011;11795;47.054;15.408;2023-11-21T11:26:02;6.2;;;4.6;;
23252;SDS011;11795;47.054;15.408;2023-11-21T11:27:59;6.6;;;4.9;;
23252;SDS011;11795;47.054;15.408;2023-11-21T11:29:59;6.6;;;4.9;;
23252;SDS011;11795;47.054;15.408;2023-11-21T11:32:00;6.8;;;5.3;;
23252;SDS011;11795;47.054;15.408;2023-11-21T11:33:58;6.8;;;5.3;;
23252;SDS011;11795;47.054;15.408;2023-11-21T11:36:00;6.8;;;5.3;;
23252;SDS011;11795;47.054;15.408;2023-11-21T11:37:58;6.2;;;4.6;;
23252;SDS011;11795;47.054;15.408;2023-11-21T11:39:57;6.2;;;4.6;;
23252;SDS011;11795;47.054;15.408;2023-11-21T11:42:01;6.4;;;5.4;;
23252;SDS011;11795;47.054;15.408;2023-11-21T11:43:57;6.4;;;5.4;;
23252;SDS011;11795;47.054;15.408;2023-11-21T11:45:59;6.4;;;5.4;;
23252;SDS011;11795;47.054;15.408;2023-11-21T11:48:00;7.2;;;5.7;;
23252;SDS011;11795;47.054;15.408;2023-11-21T11:49:58;7.2;;;5.7;;
23252;SDS011;11795;47.054;15.408;2023-11-21T11:53:57;6.8;;;4.9;;
23252;SDS011;11795;47.054;15.408;2023-11-21T11:55:57;6.8;;;4.9;;
23252;SDS011;11795;47.054;15.408;2023-11-21T11:57:58;6.2;;;4.8;;
23252;SDS011;11795;47.054;15.408;2023-11-21T12:01:57;6.2;;;4.8;;
23252;SDS011;11795;47.054;15.408;2023-11-21T12:05:58;8.5;;;6.1;;
23252;SDS011;11795;47.054;15.408;2023-11-21T12:07:58;7.7;;;5.7;;
23252;SDS011;11795;47.054;15.408;2023-11-21T12:09:57;7.7;;;5.7;;
23252;SDS011;11795;47.054;15.408;2023-11-21T12:11:57;7.7;;;5.7;;